Chattahoochee Hills, Georgia
Current Conditions -  °F | °C
As of 9:53 AM on Wednesday 22 Oct 2014 (Local Time) from KFTY Reporting Station
Clear Clear  
Wind Chill: 52°   Ceiling: Unl
Heat Index: 52°   Visibility: 10mi
Dew Point: 41°   Wind: 8mph
Humidity: 66%   Direction: 340°NNW
Pressure: 30.12"   Gusts: NA
Location:  33.61°N, 84.73°W
Report Text: KFTY 221353Z 34007KT 10SM CLR 11/05 A3012 RMK AO2 SLP198 T01110050
Loading
Personal Weather Stations






























Interactive Weather Map
Tropical Storm Tracking
New forecast layout! Learn more

10-Day Weather Forecast

Advertisements
Track Severe Weather on mobile